Time;durP1;ratioP1;P1;durP2;ratioP2;P2;SDS_P1;SDS_P2;PMS_P1;PMS_P2;Temp;Humidity;BMP_temperature;BMP_pressure;BME280_temperature;BME280_humidity;BME280_pressure;Samples;Min_cycle;Max_cycle;Signal;HPM_P1;HPM_P2
2023/08/21 00:00:05;;;;;;;13.25;11.75;;;;;;;21.48;93.84;101672.81;5008944;28;20033;-61
2023/08/21 00:02:31;;;;;;;12.50;11.20;;;;;;;21.45;93.89;101679.03;5013861;28;20045;-62
2023/08/21 00:04:56;;;;;;;14.52;11.20;;;;;;;21.40;94.02;101677.50;5010359;28;20092;-62
2023/08/21 00:07:22;;;;;;;14.23;12.48;;;;;;;21.31;94.30;101676.09;5014399;28;20044;-62
2023/08/21 00:09:48;;;;;;;14.90;12.27;;;;;;;21.24;94.38;101670.22;5007393;28;20037;-62
2023/08/21 00:12:13;;;;;;;12.60;11.27;;;;;;;21.23;94.41;101675.50;5012329;28;20052;-62
2023/08/21 00:14:38;;;;;;;13.18;10.95;;;;;;;21.19;94.70;101672.13;5009749;28;20041;-62
2023/08/21 00:17:04;;;;;;;13.88;11.32;;;;;;;21.17;94.79;101667.84;5008464;28;20068;-62
2023/08/21 00:19:30;;;;;;;12.82;10.52;;;;;;;21.13;95.14;101674.16;5005778;28;20088;-62
2023/08/21 00:21:55;;;;;;;13.48;10.20;;;;;;;21.11;95.37;101666.31;5013930;28;20524;-62
2023/08/21 00:24:21;;;;;;;12.77;10.95;;;;;;;21.08;95.22;101658.53;5007564;28;20103;-62
2023/08/21 00:26:46;;;;;;;15.35;12.45;;;;;;;21.04;95.64;101666.63;5008123;28;20033;-62
2023/08/21 00:29:12;;;;;;;13.75;11.90;;;;;;;21.01;95.69;101662.34;5007870;28;20041;-62
2023/08/21 00:31:37;;;;;;;14.57;12.60;;;;;;;20.96;96.24;101652.88;5010352;28;20037;-61
2023/08/21 00:34:02;;;;;;;13.35;12.05;;;;;;;20.91;96.41;101655.69;5009390;28;20049;-62
2023/08/21 00:36:28;;;;;;;22.30;12.93;;;;;;;20.89;96.86;101656.66;5009130;28;20128;-61
2023/08/21 00:38:53;;;;;;;15.38;11.85;;;;;;;20.84;97.21;101659.44;5012949;28;20037;-62
2023/08/21 00:41:18;;;;;;;14.32;12.32;;;;;;;20.83;97.71;101659.50;5008094;28;20057;-62
2023/08/21 00:43:45;;;;;;;13.73;12.13;;;;;;;20.82;97.67;101655.16;5012412;28;20064;-62
2023/08/21 00:46:10;;;;;;;14.20;12.70;;;;;;;20.81;97.97;101656.94;5001085;28;20096;-62
2023/08/21 00:48:37;;;;;;;16.05;14.40;;;;;;;20.80;98.14;101657.00;5003670;28;20647;-62
2023/08/21 00:51:04;;;;;;;19.00;15.10;;;;;;;20.77;98.37;101657.09;5005394;28;20096;-62
2023/08/21 00:53:29;;;;;;;15.60;14.05;;;;;;;20.76;98.67;101647.50;5012096;28;20124;-62
2023/08/21 00:55:55;;;;;;;15.77;14.15;;;;;;;20.73;98.62;101648.47;5008299;28;20402;-62
2023/08/21 00:58:20;;;;;;;14.25;12.82;;;;;;;20.72;98.72;101652.00;5011273;28;20046;-62
2023/08/21 01:00:48;;;;;;;13.30;12.02;;;;;;;20.71;99.34;101652.94;5009170;28;20045;-62
2023/08/21 01:03:14;;;;;;;13.82;12.52;;;;;;;20.71;99.55;101655.56;5005718;28;20503;-62
2023/08/21 01:05:40;;;;;;;15.43;13.85;;;;;;;20.72;99.88;101654.63;5011005;28;20045;-62
2023/08/21 01:08:09;;;;;;;13.68;12.30;;;;;;;20.73;99.73;101651.09;5011190;28;20041;-62
2023/08/21 01:10:45;;;;;;;18.55;12.05;;;;;;;20.74;99.94;101652.81;5007836;28;20103;-62
2023/08/21 01:13:43;;;;;;;13.25;11.90;;;;;;;20.75;100.00;101662.41;5010630;28;20054;-62
2023/08/21 01:16:10;;;;;;;12.68;11.43;;;;;;;20.77;99.74;101657.97;5001326;28;20507;-62
2023/08/21 01:18:35;;;;;;;18.08;14.40;;;;;;;20.80;99.97;101660.50;5003662;28;20054;-62
2023/08/21 01:21:05;;;;;;;14.18;12.73;;;;;;;20.82;99.84;101668.28;5005315;28;20061;-62
2023/08/21 01:23:35;;;;;;;14.77;13.23;;;;;;;20.83;99.90;101670.88;5004580;28;20029;-62
2023/08/21 01:26:00;;;;;;;13.18;11.88;;;;;;;20.83;99.84;101673.50;5010591;28;20042;-62
2023/08/21 01:28:27;;;;;;;13.05;11.60;;;;;;;20.83;99.79;101672.66;5005301;28;20049;-62
2023/08/21 01:31:05;;;;;;;14.60;11.52;;;;;;;20.84;99.79;101677.84;5012348;28;20034;-63
2023/08/21 01:33:34;;;;;;;13.35;11.93;;;;;;;20.84;99.83;101669.13;5007634;28;20156;-62
2023/08/21 01:36:03;;;;;;;17.40;15.55;;;;;;;20.78;99.99;101670.16;5010685;28;20033;-62
2023/08/21 01:38:32;;;;;;;17.52;14.90;;;;;;;20.72;100.00;101678.28;5014177;28;20033;-62
2023/08/21 01:40:58;;;;;;;14.65;13.27;;;;;;;20.69;100.00;101671.38;5003767;28;20033;-62
2023/08/21 01:43:23;;;;;;;15.57;13.93;;;;;;;20.66;100.00;101676.69;5006383;28;20534;-62
2023/08/21 01:45:49;;;;;;;14.68;13.15;;;;;;;20.62;100.00;101669.84;5011333;28;20052;-62
2023/08/21 01:48:14;;;;;;;15.07;13.57;;;;;;;20.59;100.00;101669.09;5004161;28;20042;-62
2023/08/21 01:50:40;;;;;;;22.23;17.48;;;;;;;20.49;100.00;101668.56;5003981;28;20029;-62
2023/08/21 01:53:05;;;;;;;20.77;18.58;;;;;;;20.43;100.00;101666.13;5007209;28;20038;-62
2023/08/21 01:55:31;;;;;;;19.77;17.63;;;;;;;20.42;100.00;101671.47;5005719;28;20111;-61
2023/08/21 01:57:56;;;;;;;18.83;16.85;;;;;;;20.41;100.00;101667.13;5004191;28;20037;-62
2023/08/21 02:00:21;;;;;;;18.48;16.55;;;;;;;20.39;100.00;101664.56;4999192;28;20062;-61
2023/08/21 02:02:47;;;;;;;17.52;15.82;;;;;;;20.39;100.00;101661.06;5007770;28;20112;-62
2023/08/21 02:05:12;;;;;;;20.77;17.80;;;;;;;20.38;100.00;101659.34;5013326;28;20554;-62
2023/08/21 02:07:37;;;;;;;20.98;18.48;;;;;;;20.32;100.00;101659.56;5011209;28;20041;-62
2023/08/21 02:10:04;;;;;;;17.42;15.60;;;;;;;20.30;100.00;101664.00;5022833;28;20029;-62
2023/08/21 02:12:29;;;;;;;20.35;16.88;;;;;;;20.26;100.00;101660.63;5013995;28;20045;-62
2023/08/21 02:14:54;;;;;;;16.13;14.50;;;;;;;20.24;100.00;101662.44;5012278;28;20109;-62
2023/08/21 02:17:20;;;;;;;21.48;15.75;;;;;;;20.22;100.00;101660.75;5010197;28;20025;-62
2023/08/21 02:19:45;;;;;;;17.27;15.68;;;;;;;20.21;100.00;101659.06;5013151;28;20040;-62
2023/08/21 02:22:10;;;;;;;19.23;15.57;;;;;;;20.21;100.00;101664.31;5006752;28;20077;-61
2023/08/21 02:24:36;;;;;;;17.08;15.27;;;;;;;20.20;100.00;101670.47;5009699;28;20774;-62
2023/08/21 02:27:01;;;;;;;22.15;19.95;;;;;;;20.19;100.00;101666.97;5013153;28;20068;-62
2023/08/21 02:29:26;;;;;;;27.42;24.52;;;;;;;20.22;100.00;101663.38;5005102;28;20105;-62
2023/08/21 02:31:52;;;;;;;23.52;21.02;;;;;;;20.21;100.00;101661.69;5010939;28;20121;-62
2023/08/21 02:34:17;;;;;;;20.65;18.55;;;;;;;20.20;100.00;101662.59;5012234;28;20065;-62
2023/08/21 02:36:42;;;;;;;25.60;21.38;;;;;;;20.18;100.00;101667.91;5007564;28;20072;-62
2023/08/21 02:39:08;;;;;;;24.80;21.90;;;;;;;20.12;100.00;101668.97;5004233;28;20112;-62
2023/08/21 02:41:33;;;;;;;24.58;21.92;;;;;;;20.08;100.00;101669.09;5011025;28;20088;-61
2023/08/21 02:43:58;;;;;;;27.90;23.17;;;;;;;20.05;100.00;101677.94;5012753;28;20045;-62
2023/08/21 02:46:24;;;;;;;22.90;20.58;;;;;;;20.04;100.00;101665.72;5010320;28;20414;-62
2023/08/21 02:48:49;;;;;;;26.27;22.52;;;;;;;20.02;100.00;101667.53;5015321;28;20037;-61
2023/08/21 02:51:14;;;;;;;21.15;18.95;;;;;;;20.03;100.00;101666.66;5015467;28;20037;-61
2023/08/21 02:53:40;;;;;;;21.90;19.65;;;;;;;20.04;100.00;101664.84;5014652;28;20041;-62
2023/08/21 02:56:05;;;;;;;19.92;17.83;;;;;;;20.06;100.00;101671.81;5016474;28;20069;-61
2023/08/21 02:58:30;;;;;;;19.17;17.25;;;;;;;20.06;100.00;101663.06;5005336;28;20046;-62
2023/08/21 03:00:57;;;;;;;22.08;18.63;;;;;;;20.09;100.00;101668.22;5022391;28;20047;-62
2023/08/21 03:03:22;;;;;;;21.98;19.60;;;;;;;20.13;100.00;101669.81;5015840;28;20120;-62
2023/08/21 03:05:48;;;;;;;26.90;22.08;;;;;;;20.18;100.00;101666.13;5016712;28;20037;-62
2023/08/21 03:08:13;;;;;;;27.30;24.42;;;;;;;20.22;100.00;101669.50;5011944;28;20041;-62
2023/08/21 03:10:39;;;;;;;24.73;22.17;;;;;;;20.24;100.00;101666.84;5007753;28;20038;-62
2023/08/21 03:13:04;;;;;;;23.55;21.10;;;;;;;20.24;100.00;101672.09;5012407;28;20050;-62
2023/08/21 03:15:29;;;;;;;21.48;19.23;;;;;;;20.21;100.00;101675.69;5010046;28;20071;-62
2023/08/21 03:17:55;;;;;;;21.85;19.45;;;;;;;20.21;100.00;101669.56;5011499;28;20073;-62
2023/08/21 03:20:20;;;;;;;21.42;19.13;;;;;;;20.20;100.00;101668.69;5006677;28;20072;-62
2023/08/21 03:22:46;;;;;;;24.60;22.20;;;;;;;20.19;100.00;101666.97;5006596;28;20073;-62
2023/08/21 03:25:12;;;;;;;26.38;23.70;;;;;;;20.16;100.00;101667.94;5013943;28;20045;-62
2023/08/21 03:27:39;;;;;;;25.23;22.63;;;;;;;20.13;100.00;101673.28;5011106;28;20103;-61
2023/08/21 03:30:06;;;;;;;22.92;20.40;;;;;;;20.12;100.00;101673.34;5003224;28;20168;-61
2023/08/21 03:32:32;;;;;;;22.52;20.17;;;;;;;20.10;100.00;101677.78;5013622;28;20458;-61
2023/08/21 03:34:58;;;;;;;23.17;19.63;;;;;;;20.08;100.00;101672.59;5008039;28;20030;-62
2023/08/21 03:37:23;;;;;;;20.80;18.65;;;;;;;20.06;100.00;101671.81;5006550;28;20092;-61
2023/08/21 03:39:48;;;;;;;20.33;18.20;;;;;;;20.03;100.00;101669.28;5010805;28;20095;-62
2023/08/21 03:42:14;;;;;;;20.77;18.63;;;;;;;20.01;100.00;101670.22;5008714;28;20045;-62
2023/08/21 03:44:40;;;;;;;19.58;17.65;;;;;;;19.99;100.00;101665.03;5006982;28;20121;-62
2023/08/21 03:47:05;;;;;;;23.05;20.65;;;;;;;19.98;100.00;101668.53;5009942;28;20454;-62
2023/08/21 03:49:30;;;;;;;20.88;18.77;;;;;;;19.99;100.00;101672.91;5004355;28;20053;-62
2023/08/21 03:51:56;;;;;;;22.63;20.23;;;;;;;19.97;100.00;101663.38;5008324;28;20041;-62
2023/08/21 03:54:21;;;;;;;24.17;21.67;;;;;;;19.92;100.00;101655.63;5007115;28;20076;-62
2023/08/21 03:56:46;;;;;;;22.77;20.33;;;;;;;19.88;100.00;101650.53;5007262;28;20122;-62
2023/08/21 03:59:12;;;;;;;23.48;20.98;;;;;;;19.85;100.00;101651.50;5002381;28;20064;-62
2023/08/21 04:01:37;;;;;;;22.70;20.23;;;;;;;19.82;100.00;101650.75;5010856;28;20057;-62
2023/08/21 04:04:03;;;;;;;21.92;19.63;;;;;;;19.80;100.00;101649.94;5009136;28;20796;-62
2023/08/21 04:06:28;;;;;;;22.08;19.73;;;;;;;19.78;100.00;101657.81;5012679;28;20045;-62
2023/08/21 04:08:54;;;;;;;22.10;19.90;;;;;;;19.76;100.00;101649.16;5008361;28;20042;-62
2023/08/21 04:11:19;;;;;;;20.48;17.67;;;;;;;19.75;100.00;101660.53;5006109;28;20026;-62
2023/08/21 04:13:44;;;;;;;20.55;18.48;;;;;;;19.74;100.00;101656.19;5008179;28;20048;-62
2023/08/21 04:16:11;;;;;;;18.67;16.98;;;;;;;19.75;100.00;101654.41;5005794;28;20041;-61
2023/08/21 04:18:38;;;;;;;18.95;16.90;;;;;;;19.76;100.00;101662.25;5008099;28;20111;-62
2023/08/21 04:21:03;;;;;;;18.27;16.30;;;;;;;19.77;100.00;101660.50;5013418;28;20030;-61
2023/08/21 04:23:28;;;;;;;23.60;21.20;;;;;;;19.76;100.00;101669.25;5011963;28;20041;-62
2023/08/21 04:26:00;;;;;;;20.75;18.13;;;;;;;19.77;100.00;101666.56;5009661;28;20140;-62
2023/08/21 04:28:26;;;;;;;19.60;17.63;;;;;;;19.79;100.00;101670.06;5013059;28;20046;-62
2023/08/21 04:30:51;;;;;;;20.90;18.77;;;;;;;19.79;100.00;101659.56;5007743;28;20383;-61
2023/08/21 04:33:16;;;;;;;25.40;19.15;;;;;;;19.79;100.00;101662.19;5011930;28;20049;-61
2023/08/21 04:35:42;;;;;;;22.05;19.75;;;;;;;19.80;100.00;101657.81;5009765;28;20028;-62
2023/08/21 04:38:07;;;;;;;22.80;20.45;;;;;;;19.81;100.00;101656.88;5015532;28;20037;-61
2023/08/21 04:40:32;;;;;;;21.55;19.27;;;;;;;19.83;100.00;101673.47;5010667;28;20138;-61
2023/08/21 04:42:58;;;;;;;22.60;19.35;;;;;;;19.86;100.00;101676.81;5008238;28;20137;-61
2023/08/21 04:45:23;;;;;;;20.00;18.02;;;;;;;19.89;100.00;101674.09;5001577;28;20096;-62
2023/08/21 04:47:48;;;;;;;20.38;18.00;;;;;;;19.91;100.00;101674.91;5018011;28;20029;-62
2023/08/21 04:50:15;;;;;;;20.38;18.38;;;;;;;19.95;100.00;101673.03;5010509;28;20053;-62
2023/08/21 04:52:41;;;;;;;24.27;21.77;;;;;;;19.95;100.00;101671.28;5010563;28;20038;-62
2023/08/21 04:55:07;;;;;;;22.23;19.73;;;;;;;19.97;100.00;101681.72;5011959;28;20720;-62
2023/08/21 04:57:32;;;;;;;22.58;19.42;;;;;;;19.97;100.00;101674.72;5004449;28;20040;-62
2023/08/21 04:59:57;;;;;;;21.38;19.30;;;;;;;19.98;100.00;101679.03;5011497;28;20037;-62
2023/08/21 05:02:23;;;;;;;21.00;17.92;;;;;;;19.99;100.00;101688.66;5007124;28;20030;-62
2023/08/21 05:04:48;;;;;;;19.38;17.50;;;;;;;20.03;100.00;101681.53;5015340;28;20037;-61
2023/08/21 05:07:14;;;;;;;22.15;19.50;;;;;;;20.04;100.00;101681.47;5010539;28;20038;-62
2023/08/21 05:09:39;;;;;;;25.23;22.60;;;;;;;20.04;100.00;101683.22;5004837;28;20041;-62
2023/08/21 05:12:05;;;;;;;22.45;20.15;;;;;;;20.07;100.00;101681.38;5001285;28;20411;-62
2023/08/21 05:14:31;;;;;;;23.38;20.98;;;;;;;20.09;100.00;101679.56;5008813;28;20046;-62
2023/08/21 05:16:56;;;;;;;24.60;21.05;;;;;;;20.10;100.00;101683.91;5009687;28;20037;-62
2023/08/21 05:19:21;;;;;;;21.67;19.40;;;;;;;20.13;100.00;101686.41;5005433;28;20046;-62
2023/08/21 05:21:47;;;;;;;22.65;20.23;;;;;;;20.17;100.00;101682.78;4998980;28;20132;-61
2023/08/21 05:24:12;;;;;;;23.45;20.83;;;;;;;20.23;100.00;101691.38;4999727;28;20561;-61
2023/08/21 05:26:38;;;;;;;23.15;20.70;;;;;;;20.28;100.00;101690.28;5009377;28;20037;-61
2023/08/21 05:29:04;;;;;;;26.45;22.25;;;;;;;20.32;100.00;101694.53;5006890;28;20075;-62
2023/08/21 05:31:29;;;;;;;24.75;21.95;;;;;;;20.40;100.00;101689.03;5009128;28;20049;-62
2023/08/21 05:33:55;;;;;;;25.23;22.08;;;;;;;20.45;100.00;101692.38;5023307;28;20057;-62
2023/08/21 05:36:20;;;;;;;26.52;22.15;;;;;;;20.49;100.00;101704.47;5008905;28;20057;-62
2023/08/21 05:38:47;;;;;;;25.10;22.50;;;;;;;20.57;100.00;101705.09;5007422;28;20124;-62
2023/08/21 05:41:13;;;;;;;25.35;22.60;;;;;;;20.61;100.00;101709.28;5010514;28;20076;-62
2023/08/21 05:43:39;;;;;;;24.33;21.67;;;;;;;20.67;100.00;101706.47;5006607;28;20621;-62
2023/08/21 05:46:06;;;;;;;24.10;21.63;;;;;;;20.67;100.00;101707.31;5007429;28;20065;-62
2023/08/21 05:48:31;;;;;;;24.92;21.90;;;;;;;20.71;100.00;101700.22;5007864;28;20032;-62
2023/08/21 05:50:57;;;;;;;24.80;22.17;;;;;;;20.74;100.00;101704.50;5006773;28;20022;-62
2023/08/21 05:53:22;;;;;;;23.25;20.75;;;;;;;20.85;100.00;101712.88;5013192;28;20406;-62
2023/08/21 05:55:48;;;;;;;24.80;22.05;;;;;;;20.86;100.00;101706.72;5011661;28;20038;-62
2023/08/21 05:58:13;;;;;;;24.15;21.65;;;;;;;20.92;100.00;101712.59;5008577;28;20045;-63
2023/08/21 06:00:39;;;;;;;26.48;22.38;;;;;;;21.01;100.00;101707.03;5010382;28;20547;-63
2023/08/21 06:03:04;;;;;;;24.77;21.92;;;;;;;21.01;100.00;101708.78;5010284;28;20033;-63
2023/08/21 06:05:30;;;;;;;23.85;21.08;;;;;;;21.04;100.00;101711.31;5004504;28;20042;-63
2023/08/21 06:07:55;;;;;;;25.00;21.45;;;;;;;21.07;100.00;101711.19;5006695;28;20037;-63
2023/08/21 06:10:21;;;;;;;27.73;20.50;;;;;;;21.09;100.00;101707.59;5007563;28;20029;-63
2023/08/21 06:12:47;;;;;;;24.88;20.52;;;;;;;21.14;100.00;101712.66;5002095;28;20041;-63
2023/08/21 06:15:13;;;;;;;22.58;20.08;;;;;;;21.14;100.00;101715.28;5006658;28;20034;-63
2023/08/21 06:17:40;;;;;;;22.00;18.40;;;;;;;21.16;100.00;101716.97;5012652;28;20041;-63
2023/08/21 06:20:08;;;;;;;20.70;18.45;;;;;;;21.22;100.00;101713.25;5006749;28;20037;-63
2023/08/21 06:22:33;;;;;;;23.90;19.15;;;;;;;21.19;99.94;101713.38;5014401;28;20038;-63
2023/08/21 06:24:59;;;;;;;21.83;19.52;;;;;;;21.12;99.81;101710.09;5012179;28;20046;-63
2023/08/21 06:27:24;;;;;;;19.77;17.70;;;;;;;21.12;100.00;101730.28;5014063;28;20071;-63
2023/08/21 06:29:49;;;;;;;22.23;18.17;;;;;;;21.12;100.00;101722.38;5012108;28;20034;-63
2023/08/21 06:32:15;;;;;;;20.05;17.90;;;;;;;21.16;100.00;101730.13;5019045;28;20025;-63
2023/08/21 06:34:40;;;;;;;20.85;18.20;;;;;;;21.21;100.00;101735.19;5014218;28;20050;-63
2023/08/21 06:37:05;;;;;;;20.95;17.65;;;;;;;21.23;100.00;101736.00;5016380;28;20045;-63
2023/08/21 06:39:31;;;;;;;18.27;15.48;;;;;;;21.25;99.30;101742.91;5014400;28;20048;-63
2023/08/21 06:41:57;;;;;;;21.33;15.70;;;;;;;21.23;97.07;101741.25;5010215;28;20069;-63
2023/08/21 06:44:22;;;;;;;21.25;15.32;;;;;;;21.23;96.04;101739.47;5007347;28;20040;-63
2023/08/21 06:46:47;;;;;;;21.50;16.10;;;;;;;21.26;95.88;101742.00;5008038;28;20038;-63
2023/08/21 06:49:13;;;;;;;21.05;15.27;;;;;;;21.30;96.28;101748.00;5012768;28;20084;-63
2023/08/21 06:51:38;;;;;;;19.15;15.38;;;;;;;21.35;95.97;101745.19;5009457;28;20182;-63
2023/08/21 06:54:04;;;;;;;22.08;17.52;;;;;;;21.41;95.73;101750.22;5010627;28;20485;-62
2023/08/21 06:56:29;;;;;;;23.15;16.27;;;;;;;21.45;95.42;101739.56;5009086;28;20133;-60
2023/08/21 06:58:55;;;;;;;19.83;17.13;;;;;;;21.49;94.37;101733.22;5006073;28;20080;-60
2023/08/21 07:01:21;;;;;;;20.30;16.83;;;;;;;21.55;94.08;101733.03;5009633;28;20040;-60
2023/08/21 07:03:46;;;;;;;20.48;16.48;;;;;;;21.60;94.09;101733.75;5009668;28;20513;-59
2023/08/21 07:06:12;;;;;;;17.55;14.10;;;;;;;21.67;93.73;101729.94;5007795;28;20029;-62
2023/08/21 07:08:40;;;;;;;21.02;16.38;;;;;;;21.74;93.11;101727.94;5014041;28;20034;-62
2023/08/21 07:11:07;;;;;;;17.52;15.45;;;;;;;21.82;93.30;101732.91;5017283;28;20029;-62
2023/08/21 07:13:33;;;;;;;23.50;18.75;;;;;;;21.85;92.04;101728.34;5015259;28;20049;-65
2023/08/21 07:16:02;;;;;;;24.77;18.85;;;;;;;21.88;91.50;101733.50;5020874;28;20033;-62
2023/08/21 07:18:27;;;;;;;20.73;17.48;;;;;;;21.95;91.28;101734.97;5010749;28;20040;-61
2023/08/21 07:20:53;;;;;;;20.45;17.20;;;;;;;22.00;90.86;101725.09;5024077;28;20037;-60
2023/08/21 07:23:18;;;;;;;24.02;18.20;;;;;;;22.08;91.26;101732.72;5014670;28;20037;-60
2023/08/21 07:25:44;;;;;;;21.98;18.00;;;;;;;22.09;90.67;101727.38;4994579;28;20060;-60
2023/08/21 07:28:10;;;;;;;20.77;17.10;;;;;;;22.15;90.78;101736.78;5001011;28;20041;-65
2023/08/21 07:30:38;;;;;;;23.30;17.30;;;;;;;22.21;90.88;101729.50;5000323;28;20037;-65
2023/08/21 07:33:03;;;;;;;24.60;19.40;;;;;;;22.28;90.57;101730.13;5000224;28;20747;-62
2023/08/21 07:35:29;;;;;;;24.95;19.45;;;;;;;22.36;90.06;101736.78;4998524;28;20182;-61
2023/08/21 07:37:54;;;;;;;20.80;17.20;;;;;;;22.44;89.72;101735.66;5000234;28;20113;-62
2023/08/21 07:40:20;;;;;;;21.85;17.55;;;;;;;22.51;88.85;101735.31;5002612;28;20511;-62
2023/08/21 07:42:45;;;;;;;20.73;18.02;;;;;;;22.58;87.65;101730.63;4999819;28;20096;-63
2023/08/21 07:45:11;;;;;;;27.48;19.98;;;;;;;22.65;87.87;101726.84;4997772;28;20030;-63
2023/08/21 07:47:36;;;;;;;26.30;19.10;;;;;;;22.72;87.28;101728.25;4998423;28;20761;-63
2023/08/21 07:50:01;;;;;;;25.38;18.90;;;;;;;22.78;86.50;101735.91;5001066;28;20698;-63
2023/08/21 07:52:27;;;;;;;24.38;16.15;;;;;;;22.85;86.63;101732.09;5023111;28;20046;-63
2023/08/21 07:54:53;;;;;;;19.20;16.38;;;;;;;22.92;86.55;101728.25;5002677;28;20114;-62
2023/08/21 07:57:18;;;;;;;23.50;18.05;;;;;;;23.03;85.19;101723.38;5005017;28;20383;-64
2023/08/21 07:59:44;;;;;;;20.85;15.45;;;;;;;23.12;84.84;101725.59;5010231;28;20528;-62
2023/08/21 08:02:12;;;;;;;21.50;15.45;;;;;;;23.18;85.09;101729.75;5018663;28;20048;-63
2023/08/21 08:04:38;;;;;;;18.98;16.90;;;;;;;23.21;83.95;101724.34;5009274;28;20041;-63
2023/08/21 08:07:03;;;;;;;26.02;17.52;;;;;;;23.23;83.29;101728.63;5006783;28;20041;-62
2023/08/21 08:09:28;;;;;;;20.90;15.98;;;;;;;23.27;83.73;101722.25;5011777;28;20037;-61
2023/08/21 08:11:54;;;;;;;16.73;13.57;;;;;;;23.34;84.31;101730.75;5004384;28;20036;-61
2023/08/21 08:14:19;;;;;;;19.08;16.05;;;;;;;23.41;84.74;101732.19;5009034;28;20613;-61
2023/08/21 08:16:44;;;;;;;19.55;15.75;;;;;;;23.49;84.36;101731.84;5007466;28;20041;-59
2023/08/21 08:19:10;;;;;;;19.50;15.45;;;;;;;23.54;84.13;101727.22;5004120;28;20084;-59
2023/08/21 08:21:36;;;;;;;22.30;15.10;;;;;;;23.60;83.78;101725.13;5007504;28;20145;-59
2023/08/21 08:24:02;;;;;;;20.70;15.27;;;;;;;23.68;83.61;101735.34;5002672;28;20438;-59
2023/08/21 08:26:27;;;;;;;17.13;15.20;;;;;;;23.72;82.71;101732.47;5004047;28;20394;-62
2023/08/21 08:28:52;;;;;;;17.33;14.02;;;;;;;23.76;82.90;101727.91;5006106;28;21093;-62
2023/08/21 08:31:19;;;;;;;22.65;16.08;;;;;;;23.81;81.36;101723.25;5008736;28;20159;-62
2023/08/21 08:33:45;;;;;;;20.63;15.20;;;;;;;23.90;81.85;101728.09;5009885;28;20413;-63
2023/08/21 08:36:10;;;;;;;18.40;15.27;;;;;;;23.99;81.49;101732.97;5011949;28;20033;-63
2023/08/21 08:38:36;;;;;;;19.73;16.70;;;;;;;24.07;81.55;101724.69;5012104;28;20041;-61
2023/08/21 08:41:06;;;;;;;18.67;14.75;;;;;;;24.13;81.07;101725.25;5005610;28;20038;-61
2023/08/21 08:43:35;;;;;;;21.55;17.25;;;;;;;24.21;80.24;101719.56;5011134;28;20126;-61
2023/08/21 08:46:02;;;;;;;17.90;14.00;;;;;;;24.35;80.61;101723.22;5009621;28;20039;-61
2023/08/21 08:48:28;;;;;;;18.20;15.50;;;;;;;24.48;79.80;101729.63;5008007;28;20869;-61
2023/08/21 08:50:53;;;;;;;19.95;15.73;;;;;;;24.55;79.86;101719.59;5007118;28;20048;-61
2023/08/21 08:53:19;;;;;;;19.70;14.60;;;;;;;24.60;79.59;101716.69;5009817;28;20045;-60
2023/08/21 08:55:45;;;;;;;20.85;15.50;;;;;;;24.65;78.92;101722.59;5009428;28;20054;-60
2023/08/21 08:58:11;;;;;;;16.42;14.05;;;;;;;24.69;78.92;101721.53;5015075;28;20479;-61
2023/08/21 09:00:37;;;;;;;21.73;14.80;;;;;;;24.80;78.81;101716.53;5009951;28;20025;-61
2023/08/21 09:03:03;;;;;;;19.02;14.20;;;;;;;24.88;78.61;101716.97;5008521;28;20117;-62
2023/08/21 09:05:28;;;;;;;17.27;14.65;;;;;;;24.93;78.90;101715.84;5007885;28;20076;-63
2023/08/21 09:08:10;;;;;;;22.48;16.77;;;;;;;25.04;77.79;101715.25;5008476;28;20046;-62
2023/08/21 09:10:40;;;;;;;18.58;15.45;;;;;;;25.15;77.61;101714.66;5008723;28;20572;-63
2023/08/21 09:13:25;;;;;;;14.75;12.95;;;;;;;25.22;76.41;101710.75;5014541;28;20067;-63
2023/08/21 09:15:55;;;;;;;15.25;12.15;;;;;;;25.29;76.15;101709.50;5014808;28;20030;-62
2023/08/21 09:18:20;;;;;;;19.35;14.32;;;;;;;25.30;75.51;101704.13;5006503;28;20092;-63
2023/08/21 09:20:47;;;;;;;18.90;14.93;;;;;;;25.31;74.98;101704.97;5008504;28;20045;-63
2023/08/21 09:23:14;;;;;;;14.00;11.50;;;;;;;25.37;74.70;101700.19;5012513;28;20179;-62
2023/08/21 09:25:40;;;;;;;15.35;11.43;;;;;;;25.43;74.38;101713.13;5010115;28;20042;-63
2023/08/21 09:28:07;;;;;;;17.23;12.35;;;;;;;25.49;72.59;101694.28;5007833;28;20075;-63
2023/08/21 09:30:50;;;;;;;19.17;13.50;;;;;;;25.56;71.90;101686.84;5005993;28;20097;-63
2023/08/21 09:33:20;;;;;;;16.63;11.65;;;;;;;25.63;72.08;101697.00;5006038;28;20021;-62
2023/08/21 09:35:47;;;;;;;18.60;14.10;;;;;;;25.68;72.08;101691.41;5014030;28;20041;-62
2023/08/21 09:38:12;;;;;;;17.08;10.90;;;;;;;25.76;71.00;101693.66;5011923;28;20041;-63
2023/08/21 09:40:42;;;;;;;17.92;12.70;;;;;;;25.80;70.93;101693.38;5015659;28;20692;-62
2023/08/21 09:43:11;;;;;;;14.73;11.52;;;;;;;25.88;70.90;101695.59;5018069;28;20042;-63
2023/08/21 09:45:37;;;;;;;15.15;10.55;;;;;;;26.00;69.77;101686.97;5011760;28;20061;-62
2023/08/21 09:48:03;;;;;;;17.20;11.82;;;;;;;26.13;69.35;101682.66;5022588;28;20151;-63
2023/08/21 09:50:30;;;;;;;22.38;11.73;;;;;;;26.27;68.90;101680.09;5014663;28;20614;-63
2023/08/21 09:52:57;;;;;;;20.48;11.60;;;;;;;26.34;67.98;101672.59;5014509;28;20894;-62
2023/08/21 09:55:25;;;;;;;15.93;10.88;;;;;;;26.38;68.01;101668.81;5012788;28;20057;-62
2023/08/21 09:57:58;;;;;;;16.55;9.43;;;;;;;26.43;68.18;101682.66;5013022;28;20041;-63
2023/08/21 10:00:28;;;;;;;12.98;10.20;;;;;;;26.47;68.32;101682.41;5023363;28;20022;-63
2023/08/21 10:02:55;;;;;;;17.25;10.38;;;;;;;26.47;68.44;101678.88;5023926;28;20045;-67
2023/08/21 10:05:21;;;;;;;14.15;9.73;;;;;;;26.50;67.69;101673.41;5010516;28;20061;-62
2023/08/21 10:07:48;;;;;;;15.38;11.52;;;;;;;26.63;66.86;101651.31;5012656;28;20186;-60
2023/08/21 10:10:15;;;;;;;14.93;11.50;;;;;;;26.76;66.37;101653.22;5006826;28;20038;-60
2023/08/21 10:12:40;;;;;;;16.85;10.35;;;;;;;26.79;66.83;101655.72;5011171;28;20044;-60
2023/08/21 10:15:09;;;;;;;21.10;13.10;;;;;;;26.83;66.08;101641.34;5014238;28;20037;-60
2023/08/21 10:17:38;;;;;;;19.05;11.65;;;;;;;26.96;66.59;101656.38;5005771;28;20041;-60
2023/08/21 10:20:05;;;;;;;18.15;13.65;;;;;;;27.02;66.13;101648.03;5006936;28;20497;-60
2023/08/21 10:22:42;;;;;;;15.00;12.25;;;;;;;26.96;66.33;101643.13;5004156;28;20052;-60
2023/08/21 10:25:22;;;;;;;22.65;13.43;;;;;;;26.86;66.06;101647.31;4999808;28;20566;-60
2023/08/21 10:27:53;;;;;;;18.02;12.50;;;;;;;26.88;66.37;101648.06;5009408;28;20810;-60
2023/08/21 10:30:26;;;;;;;19.38;12.85;;;;;;;26.92;66.47;101648.72;5010188;28;20033;-60
2023/08/21 10:32:59;;;;;;;26.85;13.02;;;;;;;26.97;66.26;101643.97;5006772;28;20056;-61
2023/08/21 10:35:30;;;;;;;20.33;14.00;;;;;;;26.96;65.96;101637.81;5005557;28;20041;-60
2023/08/21 10:38:13;;;;;;;18.77;13.77;;;;;;;26.93;66.34;101643.31;5004421;28;20096;-60
2023/08/21 10:41:04;;;;;;;17.02;11.68;;;;;;;27.09;66.81;101643.22;5006752;28;20091;-59
2023/08/21 10:44:00;;;;;;;17.33;13.73;;;;;;;27.20;66.17;101641.56;5007531;28;20046;-60
2023/08/21 10:46:25;;;;;;;17.17;11.02;;;;;;;27.31;65.35;101632.94;5004364;28;20038;-60
2023/08/21 10:48:51;;;;;;;13.48;10.57;;;;;;;27.35;65.08;101633.56;5000015;28;20584;-60
2023/08/21 10:51:17;;;;;;;17.23;12.70;;;;;;;27.38;65.31;101636.88;5010462;28;20701;-60
2023/08/21 10:53:43;;;;;;;20.65;12.90;;;;;;;27.40;63.54;101611.06;5017278;28;20038;-60
2023/08/21 10:56:08;;;;;;;15.88;12.48;;;;;;;27.47;63.30;101603.59;5006347;28;20401;-60
2023/08/21 10:58:47;;;;;;;14.43;11.00;;;;;;;27.54;63.67;101621.72;5002990;28;20045;-62
2023/08/21 11:01:13;;;;;;;16.27;11.45;;;;;;;27.63;62.88;101604.31;5008740;28;20040;-60
2023/08/21 11:03:40;;;;;;;16.13;10.38;;;;;;;27.80;62.47;101610.22;5013355;28;20037;-60